Airfield :
LOGIN :

Register | Disclaimer

   EN    FR    IT 

 










Legend :    VFR   Marginal VFR   IFR   Intensive IFR   Very Intensive IFR
Visi :
Ceiling :
>= 8 km
>= 3000ft
5 to 8 km
1000 to 3000 ft
1500m to 5 km
500 to 1000 ft
800 to 1500m
200 to 500 ft
< 800m
< 200 ft
Symbols :   Thunderstorms  Fog  Heavy snow  Heavy precipitations  Wind > 20 kt
SIGMETs :     Misc.  Thunderstorms  Icing  Turbulence  Mountain Waves  Volcanic Ashes







- Airport Elevation : 138 ft
- IATA code : BIO


LEBB - Bilbao

CURRENT METAR :
  • 240830Z VRB01KT 5000 BR FEW011 SCT015 BKN020 19/18 Q1022 TEMPO 4000 BR BKN014

EXPIRED METARs :
  • 240814Z VRB01KT 6000 SCT012 BKN020 BKN025 19/18 Q1022 TEMPO 4000 BR BKN014
  • 240800Z VRB01KT 7000 FEW012 BKN015 BKN023 19/18 Q1023 TEMPO 4000 BR BKN014
  • 240730Z 00000KT 6000 FEW005 BKN014 BKN020 19/18 Q1023 TEMPO 4000 BR BKN014
  • 240700Z 00000KT 5000 BR FEW005 BKN013 BKN020 19/18 Q1023 TEMPO 4000 BR BKN014
  • 240630Z 00000KT 5000 BR FEW007 BKN013 BKN020 19/18 Q1023 TEMPO 4000 BR BKN014
  • 240622Z 00000KT 5000 BR FEW007 BKN013 BKN020 18/18 Q1023 TEMPO 2000 -RADZ BKN009
  • 240611Z 00000KT 4500 BR FEW007 BKN013 BKN020 18/18 Q1023 TEMPO 2000 -RADZ BKN009

TAF AMD TAF LEBB
Valid from the 23 at 18:00 until the 24 at 18:00 UTC


231851Z 2318/2418 32007KT 8000 SCT015 BKN020 TX23/2414Z TN17/2405Z
TEMPO 2319/2409 4000 DZ BR BKN012
PROB30
TEMPO 2320/2407 2500 -RADZ BKN008
No reported NOTAMs for that airfield.



MET'MAP, your aeronautical weather chart ! - Copyright ORBIFLY December 2007 - Disclaimer

ORBIFLY MET'MAP TEAM :

Programming & Development : Alexandra Zaïnal
Concept & Development : Baudouin d'Aumeries
Co-Development & Prog : Marc-Olivier Méhu
Technical & hardware support : Manuel Goepfert

Contact : metmap@orbifly.com




SOURCES & CREDITS :

   NOAA